Date,TemperatureHighF,TemperatureAvgF,TemperatureLowF,DewpointHighF,DewpointAvgF,DewpointLowF,HumidityHigh,HumidityAvg,HumidityLow,PressureMaxIn,PressureMinIn,WindSpeedMaxMPH,WindSpeedAvgMPH,GustSpeedMaxMPH,PrecipitationSumIn
2013-1-1,47,41,36,38,27,16,74,59,45,30.07,30.07,8,4,10,0.04
2013-1-2,41,37,30,18,17,15,56,44,37,30.35,29.83,6,2,8,0.00
2013-1-3,49,38,25,21,17,13,73,44,26,30.47,30.32,7,2,10,0.00
2013-1-4,52,45,40,28,21,17,59,40,27,30.52,30.35,5,1,6,0.00
2013-1-5,56,44,36,37,28,25,86,56,30,30.38,30.20,9,2,9,0.00
2013-1-6,57,42,32,30,18,8,81,44,17,30.41,30.26,8,2,10,0.00
2013-1-7,58,42,26,25,19,13,61,41,24,30.32,30.08,5,1,8,0.00
2013-1-8,48,47,45,48,37,21,100,72,39,30.11,29.96,5,2,8,1.42
2013-1-9,57,54,48,57,52,48,100,96,88,30.11,29.93,8,3,10,1.30
2013-1-10,59,54,47,57,45,33,100,74,38,29.99,29.93,8,3,10,0.08
2013-1-11,71,58,46,58,42,36,80,57,28,29.96,29.76,10,5,15,0.00
2013-1-12,66,55,36,64,46,20,96,72,42,29.96,29.70,13,4,14,0.12
2013-1-13,44,36,32,19,12,7,52,37,28,30.26,29.96,10,5,12,0.00
2013-1-14,44,35,29,15,10,5,41,35,28,30.35,30.20,8,4,11,0.00
2013-1-15,38,35,30,24,16,8,74,48,32,30.23,30.17,8,3,10,0.08
2013-1-16,50,37,25,15,9,2,52,33,19,30.29,30.17,5,1,7,0.00
2013-1-17,60,45,30,22,17,12,52,33,19,30.50,30.26,7,2,10,0.00
2013-1-18,65,47,30,26,21,17,62,39,18,30.50,30.26,8,2,10,0.00
2013-1-19,69,52,39,36,30,22,79,46,22,30.26,30.14,7,3,12,0.00
2013-1-20,73,52,38,44,29,17,81,46,16,30.23,30.08,6,1,7,0.00
2013-1-21,56,47,40,32,20,13,60,36,25,30.29,30.11,6,2,10,0.00
2013-1-22,69,52,36,39,26,13,59,38,23,30.32,30.17,6,1,8,0.00
2013-1-23,77,61,47,47,41,35,82,52,23,30.29,30.11,8,4,11,0.00
2013-1-24,83,63,52,60,43,32,96,54,20,30.17,30.02,6,3,10,0.00
2013-1-25,54,50,48,46,33,26,91,54,40,30.20,30.05,6,3,8,0.00
2013-1-26,55,50,46,49,38,26,94,66,41,30.23,30.08,4,2,6,0.00
2013-1-27,77,64,51,62,51,42,100,70,31,30.08,29.91,11,4,15,0.00
2013-1-28,78,71,66,59,52,45,76,54,32,29.99,29.82,13,6,17,0.00
2013-1-29,80,66,53,58,47,19,73,52,26,29.85,29.46,13,6,19,0.24
2013-1-30,54,46,34,23,14,4,43,28,16,30.14,29.70,11,4,15,0.00
2013-1-31,70,50,29,21,14,7,54,28,12,30.29,30.08,9,3,11,0.00
2013-2-1,63,46,31,26,15,6,42,29,18,30.38,30.14,7,3,10,0.00
2013-2-2,67,54,45,34,24,13,57,33,15,30.32,30.14,6,3,9,0.00
2013-2-3,74,55,34,30,19,11,62,29,12,30.32,29.99,6,2,10,0.00
2013-2-4,75,62,54,49,36,13,73,41,17,29.99,29.79,10,3,10,0.00
2013-2-5,70,62,57,63,53,42,100,76,37,30.02,29.88,5,2,8,0.00
2013-2-6,79,65,57,63,50,38,97,65,24,30.02,29.85,10,3,11,0.00
2013-2-7,81,65,55,54,42,22,84,48,13,30.11,29.82,10,5,17,0.00
2013-2-8,67,53,43,32,21,11,50,30,12,30.23,30.11,8,3,9,0.00
2013-2-9,59,51,47,59,41,23,100,69,39,30.11,29.76,8,3,10,0.00
2013-2-10,69,59,48,65,29,12,100,39,13,29.99,29.64,9,2,14,0.51
2013-2-11,57,52,48,30,23,17,49,33,22,30.14,29.99,6,2,10,0.00
2013-2-12,52,48,42,46,38,30,89,70,50,30.02,29.85,8,3,11,0.24
2013-2-13,60,46,39,28,24,16,61,44,19,30.14,29.99,11,3,11,0.00
2013-2-14,72,52,34,39,25,14,81,43,14,30.11,29.99,6,1,8,0.00
2013-2-15,53,47,36,26,15,5,38,28,18,30.38,30.08,8,4,13,0.00
2013-2-16,59,43,27,17,14,9,53,31,17,30.41,30.17,5,1,6,0.00
2013-2-17,73,54,37,33,21,16,57,32,14,30.14,29.91,13,5,15,0.00
2013-2-18,80,62,52,45,29,13,62,33,12,30.14,29.76,12,6,16,0.00
2013-2-19,64,52,38,22,14,9,41,23,13,30.32,30.11,6,2,10,0.00
2013-2-20,52,46,42,33,27,19,64,48,27,30.17,29.76,11,3,13,0.12
2013-2-21,69,54,44,47,29,13,86,45,15,29.93,29.58,10,3,12,0.20
2013-2-22,50,40,32,26,15,11,51,36,24,30.14,29.93,7,4,10,0.00
2013-2-23,56,43,31,22,16,13,51,35,20,30.08,29.91,6,1,8,0.00
2013-2-24,72,55,34,33,24,16,60,34,17,29.93,29.61,8,3,11,0.00
2013-2-25,62,52,41,45,28,13,68,42,19,29.70,29.49,10,4,15,0.04
2013-2-26,59,47,39,22,19,13,49,33,19,29.91,29.70,10,4,15,0.00
2013-2-27,58,47,38,24,15,5,53,31,15,30.23,29.88,11,4,12,0.00
2013-2-28,59,47,36,19,13,6,43,27,17,30.29,30.17,10,4,13,0.00
2013-3-1,57,45,34,20,15,7,43,30,20,30.29,30.17,6,2,12,0.00
2013-3-2,56,43,32,16,13,8,50,31,17,30.44,30.23,8,3,10,0.00
2013-3-3,74,55,34,26,17,11,41,24,13,30.23,29.79,11,5,17,0.00
2013-3-4,88,68,54,34,28,22,43,25,10,29.79,29.61,10,6,16,0.00
2013-3-5,64,51,42,29,12,2,38,22,14,30.38,29.79,15,6,17,0.00
2013-3-6,63,48,31,14,9,3,40,22,13,30.47,30.20,5,1,8,0.00
2013-3-7,74,57,40,24,15,5,30,20,13,30.23,30.08,9,3,15,0.00
2013-3-8,63,59,55,51,42,24,70,54,33,30.17,29.99,10,4,11,0.00
2013-3-9,68,64,60,62,54,46,94,70,54,29.99,29.67,11,5,17,0.35
2013-3-10,61,52,41,58,27,16,91,40,26,30.11,29.73,13,4,15,0.98
2013-3-11,61,46,34,23,14,6,60,32,14,30.14,29.99,8,2,11,0.00
2013-3-12,71,54,37,20,16,11,40,24,14,30.32,30.02,6,2,9,0.00
2013-3-13,74,56,39,27,21,16,54,28,13,30.44,30.29,4,0,6,0.00
2013-3-14,81,61,44,32,27,21,53,30,14,30.35,30.17,8,3,15,0.00
2013-3-15,85,67,53,47,33,20,76,34,11,30.17,29.91,11,5,13,0.00
2013-3-16,84,70,57,47,39,33,69,36,20,29.91,29.70,10,6,15,0.00
2013-3-17,75,67,59,56,42,33,77,43,23,29.82,29.70,13,3,13,0.00
2013-3-18,70,63,57,60,37,23,88,41,23,29.99,29.67,9,4,14,0.00
2013-3-19,69,59,48,32,25,17,43,27,18,30.11,29.96,8,3,15,0.00
2013-3-20,70,58,46,25,19,12,38,22,13,30.29,30.02,8,2,10,0.00
2013-3-21,71,62,50,48,29,14,56,30,20,30.02,29.55,14,5,15,0.00
2013-3-22,66,55,47,55,42,32,82,62,41,29.85,29.58,8,4,13,0.00
2013-3-23,57,51,46,49,41,38,93,70,51,29.88,29.67,8,3,11,0.47
2013-3-24,53,46,38,44,17,5,78,34,18,30.17,29.85,11,7,17,0.00
2013-3-25,55,44,32,13,8,0,42,24,15,30.41,30.17,11,3,12,0.00
2013-3-26,62,46,30,15,11,1,42,26,14,30.50,30.26,5,1,7,0.00
2013-3-27,73,56,37,30,20,12,41,27,14,30.29,30.05,15,4,17,0.00
2013-3-28,72,62,49,44,39,29,70,45,33,30.20,30.08,10,4,12,0.00
2013-3-29,79,67,59,49,44,38,68,46,23,30.20,29.99,11,5,15,0.00
2013-3-30,81,71,56,62,49,45,91,48,29,30.14,29.88,9,4,10,0.20
2013-3-31,76,68,58,60,44,32,86,47,22,29.99,29.79,8,4,10,0.00
2013-4-1,83,67,49,49,36,27,74,37,14,30.08,29.93,6,1,6,0.00
2013-4-2,69,65,54,59,50,32,83,58,34,30.02,29.85,14,4,18,0.35
2013-4-3,54,49,45,49,42,34,94,78,50,30.14,29.91,6,4,12,1.46
2013-4-4,51,46,42,39,32,27,85,58,41,30.20,30.11,8,4,10,0.00
2013-4-5,73,55,40,39,33,29,78,48,22,30.26,30.02,6,2,8,0.00
2013-4-6,78,65,54,49,40,34,61,42,25,30.02,29.85,12,6,15,0.00
2013-4-7,74,67,61,52,49,46,69,53,38,29.91,29.76,11,5,14,0.00
2013-4-8,77,71,65,53,50,47,61,48,37,29.76,29.64,15,6,17,0.00
2013-4-9,83,74,68,58,51,47,70,46,30,29.70,29.61,11,6,17,0.00
2013-4-10,73,48,39,58,34,24,76,60,41,29.96,29.70,10,5,13,0.28
2013-4-11,67,50,40,26,21,16,50,32,17,29.96,29.82,8,3,9,0.00
2013-4-12,81,60,40,39,30,25,71,37,14,29.99,29.85,5,1,8,0.00
2013-4-13,81,68,52,39,33,29,53,30,17,29.96,29.76,9,3,11,0.00
2013-4-14,86,70,55,55,45,36,70,43,26,29.79,29.55,10,5,14,0.00
2013-4-15,89,77,68,62,53,44,80,46,21,29.76,29.61,12,6,14,0.00
2013-4-16,91,78,70,60,52,44,67,42,20,29.88,29.76,10,6,13,0.00
2013-4-17,88,78,72,66,56,47,82,50,25,29.88,29.61,14,6,17,0.00
2013-4-18,76,55,46,67,35,19,82,49,26,30.14,29.55,11,7,16,1.14
2013-4-19,65,51,37,27,19,11,64,32,14,30.26,30.11,10,3,12,0.00
2013-4-20,74,58,41,26,22,16,49,28,13,30.20,29.99,10,4,15,0.00
2013-4-21,75,61,47,37,33,22,59,36,22,30.20,30.05,8,3,10,0.00
2013-4-22,82,68,52,47,40,34,73,38,21,30.08,29.85,10,4,13,0.00
2013-4-23,66,55,42,60,40,27,86,58,44,30.17,29.79,10,5,13,0.00
2013-4-24,62,50,38,30,23,20,66,37,21,30.32,30.17,8,4,11,0.00
2013-4-25,76,63,52,35,26,19,37,25,13,30.32,30.14,9,2,10,0.00
2013-4-26,79,68,61,58,43,29,67,41,29,30.14,29.96,10,3,11,0.00
2013-4-27,75,69,58,63,48,38,88,51,27,30.11,29.96,8,3,10,0.00
2013-4-28,86,68,51,54,49,45,88,55,25,30.02,29.85,5,2,6,0.00
2013-4-29,88,74,59,64,48,37,89,46,18,29.91,29.79,8,4,10,0.00
2013-4-30,86,72,60,60,50,43,87,50,23,29.82,29.73,7,3,10,0.00
2013-5-1,84,73,65,62,53,45,86,54,25,29.93,29.79,6,2,8,0.00
2013-5-2,70,52,44,53,34,23,70,49,39,30.32,29.93,12,7,17,0.00
2013-5-3,67,53,39,27,19,9,48,29,13,30.32,30.02,12,5,16,0.00
2013-5-4,74,58,38,31,21,12,72,28,12,30.02,29.88,9,3,15,0.00
2013-5-5,70,59,46,33,28,25,51,33,22,30.14,30.02,8,3,10,0.00
2013-5-6,78,64,48,42,36,32,71,39,20,30.11,29.99,5,1,8,0.00
2013-5-7,87,73,55,50,39,30,71,33,13,30.05,29.91,9,2,9,0.00
2013-5-8,89,76,62,44,40,36,51,30,18,29.99,29.85,10,4,17,0.00
2013-5-9,74,69,65,64,54,38,89,63,28,29.99,29.85,11,2,11,0.35
2013-5-10,81,73,66,67,53,40,100,58,24,30.05,29.88,8,2,8,0.00
2013-5-11,80,71,62,48,36,25,60,31,15,30.14,30.02,8,3,14,0.00
2013-5-12,81,68,59,41,29,20,46,25,12,30.26,30.11,6,2,8,0.00
2013-5-13,90,71,51,39,34,26,52,28,12,30.23,30.08,8,4,10,0.00
2013-5-14,89,75,58,50,42,35,71,35,15,30.14,29.96,11,4,14,0.00
2013-5-15,78,72,64,66,58,49,82,62,44,30.02,29.73,12,5,12,0.83
2013-5-16,86,72,62,64,60,55,94,69,35,29.82,29.73,9,4,11,0.00
2013-5-17,93,81,72,70,61,54,89,56,28,29.85,29.76,10,4,15,0.00
2013-5-18,95,82,72,63,58,52,71,46,25,29.88,29.76,11,6,13,0.00
2013-5-19,91,81,70,61,54,52,71,42,27,29.82,29.67,13,7,17,0.00
2013-5-20,92,81,72,61,56,51,68,44,25,29.82,29.64,13,7,27,0.00
2013-5-21,84,72,59,62,56,49,83,59,37,29.88,29.64,11,5,17,0.28
2013-5-22,89,71,53,65,49,39,95,56,18,29.93,29.82,5,1,6,0.00
2013-5-23,87,78,69,70,60,53,90,56,34,30.05,29.85,8,3,10,0.00
2013-5-24,87,77,67,69,60,52,84,58,33,30.14,29.96,8,2,13,0.31
2013-5-25,86,74,67,67,62,55,87,69,36,30.14,30.02,8,2,12,0.08
2013-5-26,90,79,71,69,61,53,90,57,30,30.05,29.91,10,5,15,0.00
2013-5-27,90,79,70,64,57,51,78,49,28,29.96,29.79,10,6,13,0.00
2013-5-28,87,79,71,62,55,50,71,46,29,29.88,29.73,14,6,15,0.00
2013-5-29,87,77,72,69,61,56,86,60,35,29.79,29.70,11,6,19,0.55
2013-5-30,91,81,73,66,60,54,75,51,29,29.79,29.67,11,6,19,0.00
2013-5-31,93,83,75,66,61,54,74,50,28,29.82,29.67,11,6,15,0.00
2013-6-1,92,81,76,68,60,50,69,50,29,29.93,29.70,12,5,17,0.08
2013-6-2,85,76,67,55,41,28,48,30,13,30.05,29.91,8,3,10,0.00
2013-6-3,93,78,62,52,44,36,62,33,14,29.99,29.82,6,2,8,0.00
2013-6-4,95,82,69,60,52,43,67,39,18,29.96,29.76,12,4,14,0.00
2013-6-5,96,82,71,63,54,43,70,40,17,29.91,29.73,8,3,14,0.00
2013-6-6,79,74,68,67,59,51,91,62,38,29.93,29.79,10,2,11,0.83
2013-6-7,85,73,63,62,48,36,85,48,18,29.99,29.88,6,2,8,0.00
2013-6-8,93,78,60,58,47,40,80,39,18,29.93,29.76,8,2,9,0.00
2013-6-9,90,78,68,67,57,48,96,52,27,29.93,29.82,8,3,10,0.31
2013-6-10,103,84,68,66,52,33,81,42,9,29.96,29.88,8,2,10,0.00
2013-6-11,96,84,72,70,58,46,85,45,19,29.99,29.91,10,4,13,0.00
2013-6-12,99,85,73,70,58,44,83,45,17,30.05,29.91,9,4,11,0.00
2013-6-13,104,87,71,68,55,45,79,39,15,30.02,29.88,6,3,8,0.00
2013-6-14,100,85,71,69,57,47,76,45,18,29.99,29.85,4,1,9,0.24
2013-6-15,96,84,74,69,61,51,78,50,27,29.99,29.85,6,2,9,0.00
2013-6-16,101,87,74,68,57,44,80,43,16,29.99,29.85,6,2,9,0.00
2013-6-17,98,83,68,77,62,53,96,52,24,30.02,29.85,6,3,13,0.75
2013-6-18,88,78,70,68,61,53,85,60,31,29.99,29.88,8,2,10,0.55
2013-6-19,96,81,70,73,62,54,92,57,27,29.96,29.85,5,2,8,0.00
2013-6-20,98,85,74,66,57,45,71,43,17,30.02,29.91,10,4,10,0.00
2013-6-21,98,86,73,68,55,44,78,39,17,30.05,29.93,9,4,11,0.00
2013-6-22,98,86,72,64,54,45,70,37,17,30.02,29.85,10,4,11,0.00
2013-6-23,98,87,75,66,55,44,70,37,17,29.96,29.85,10,4,14,0.00
2013-6-24,99,86,74,66,54,44,72,37,16,29.99,29.85,9,4,13,0.00
2013-6-25,100,88,76,64,53,42,65,34,16,29.96,29.82,12,5,14,0.00
2013-6-26,102,87,75,64,55,45,68,37,16,29.93,29.82,12,4,12,0.00
2013-6-27,105,89,75,67,55,44,70,35,14,29.99,29.85,6,3,10,0.00
2013-6-28,104,89,74,56,49,39,49,28,12,29.93,29.79,6,2,10,0.00
2013-6-29,98,87,72,60,47,33,61,30,11,29.88,29.79,5,2,8,0.00
2013-6-30,92,83,72,55,43,31,53,27,12,29.93,29.79,10,3,10,0.00
2013-7-1,88,78,68,49,41,35,49,28,16,30.02,29.91,8,3,9,0.00
2013-7-2,89,78,65,46,38,28,48,27,13,30.08,29.99,8,2,8,0.00
2013-7-3,96,80,63,47,38,26,49,26,9,30.05,29.91,4,1,8,0.00
2013-7-4,100,84,68,54,44,31,56,28,10,29.99,29.88,6,2,11,0.00
2013-7-5,100,86,68,54,43,31,52,26,10,29.99,29.85,5,2,8,0.00
2013-7-6,100,85,69,55,46,33,55,29,10,29.93,29.85,6,2,8,0.00
2013-7-7,100,87,72,62,51,43,66,32,15,29.99,29.88,6,2,8,0.00
2013-7-8,102,86,75,67,57,46,69,41,16,30.08,29.96,9,3,9,0.00
2013-7-9,103,88,74,66,49,33,69,31,9,30.11,29.93,8,3,9,0.00
2013-7-10,106,92,78,63,49,33,59,27,9,30.05,29.88,8,2,8,0.00
2013-7-11,105,87,77,64,54,44,64,35,14,29.96,29.88,6,2,11,0.00
2013-7-12,105,88,73,66,55,39,74,39,12,29.96,29.85,4,1,8,0.00
2013-7-13,103,90,79,60,51,41,52,29,14,29.99,29.85,5,2,9,0.00
2013-7-14,83,72,68,66,57,40,85,62,22,30.02,29.88,5,1,7,0.47
2013-7-15,74,70,67,72,67,63,97,91,75,30.05,29.93,3,1,6,1.10
2013-7-16,91,78,71,71,65,54,93,69,30,30.17,30.05,6,2,12,0.04
2013-7-17,90,78,71,69,65,58,89,67,34,30.20,30.11,5,1,10,0.08
2013-7-18,96,81,71,75,64,53,97,62,24,30.17,29.99,5,1,8,0.00
2013-7-19,101,84,73,72,61,48,86,51,18,30.02,29.91,6,2,10,0.00
2013-7-20,99,83,72,71,61,48,83,52,18,29.96,29.85,6,2,8,0.00
2013-7-21,102,86,72,74,61,47,91,50,17,29.91,29.82,8,3,10,0.00
2013-7-22,101,88,76,72,61,48,87,47,18,29.96,29.82,9,4,10,0.00
2013-7-23,102,89,77,70,60,47,76,41,17,29.96,29.79,9,4,10,0.00
2013-7-24,100,87,77,66,56,44,68,39,17,30.02,29.85,8,3,9,0.00
2013-7-25,98,85,74,66,60,51,71,46,25,30.02,29.93,6,2,9,0.00
2013-7-26,100,84,78,68,62,51,69,50,20,29.99,29.85,6,3,11,0.04
2013-7-27,91,81,73,65,54,42,68,43,19,29.99,29.88,8,3,10,0.00
2013-7-28,98,82,67,72,58,48,91,50,19,29.96,29.85,4,2,8,0.00
2013-7-29,100,86,76,70,59,44,79,45,17,29.96,29.88,9,4,11,0.00
2013-7-30,103,88,77,66,55,45,66,36,16,30.05,29.93,7,4,11,0.00
2013-7-31,107,90,77,62,52,44,54,30,14,30.05,29.88,6,3,8,0.00
2013-8-1,104,92,76,62,54,45,61,30,15,29.99,29.85,5,1,8,0.00
2013-8-2,106,92,78,62,52,39,59,30,12,29.93,29.85,8,3,9,0.00
2013-8-3,104,90,77,61,52,39,56,30,12,29.99,29.91,6,3,9,0.00
2013-8-4,104,90,76,68,55,44,72,35,14,30.05,29.91,6,2,9,0.00
2013-8-5,105,90,78,62,51,39,58,30,12,29.99,29.82,6,3,9,0.00
2013-8-6,106,91,77,63,50,34,60,28,10,29.91,29.79,8,4,11,0.00
2013-8-7,107,92,78,63,51,40,59,29,11,29.88,29.73,9,4,10,0.00
2013-8-8,106,90,77,66,53,40,69,32,12,29.88,29.76,11,3,11,0.00
2013-8-9,107,91,79,62,49,32,54,28,9,29.96,29.82,6,3,9,0.00
2013-8-10,98,87,76,70,58,46,79,41,18,30.05,29.93,6,2,9,0.00
2013-8-11,104,89,73,66,55,44,72,37,14,30.05,29.91,6,2,6,0.00
2013-8-12,104,89,75,66,54,44,68,35,15,30.05,29.91,5,2,8,0.00
2013-8-13,103,85,77,67,58,48,68,42,16,29.99,29.88,9,2,15,0.59
2013-8-14,91,79,74,73,67,56,91,69,31,30.02,29.93,6,2,17,1.06
2013-8-15,90,79,72,65,56,50,69,48,27,30.05,29.93,6,2,10,0.00
2013-8-16,89,78,70,60,52,45,71,42,22,30.05,29.93,6,2,10,0.00
2013-8-17,90,78,66,54,47,39,64,36,18,30.08,29.96,10,2,11,0.00
2013-8-18,92,80,69,57,49,41,67,36,18,30.08,29.96,5,1,7,0.00
2013-8-19,98,84,72,55,48,38,52,32,13,30.05,29.91,6,1,8,0.00
2013-8-20,99,84,69,58,46,32,63,30,10,30.02,29.93,5,1,8,0.00
2013-8-21,100,85,71,62,52,44,68,36,16,30.08,29.96,5,2,8,0.00
2013-8-22,103,87,74,67,54,44,70,36,15,30.08,29.91,5,2,8,0.00
2013-8-23,102,89,77,64,53,40,61,33,13,30.02,29.88,6,2,8,0.00
2013-8-24,100,88,75,61,52,40,59,32,13,30.05,29.93,8,2,9,0.00
2013-8-25,99,87,74,63,52,44,67,33,16,30.11,30.02,6,2,10,0.00
2013-8-26,97,85,75,63,53,41,64,37,16,30.14,30.02,10,3,10,0.00
2013-8-27,96,81,72,68,60,48,82,52,19,30.11,29.99,8,3,13,0.00
2013-8-28,104,85,69,68,54,39,82,43,12,30.08,29.96,6,1,8,0.00
2013-8-29,105,88,71,61,50,35,69,31,10,30.05,29.93,5,1,7,0.00
2013-8-30,104,90,74,56,47,33,50,26,9,29.99,29.85,5,1,6,0.00
2013-8-31,106,90,76,58,46,33,50,25,9,29.91,29.79,4,2,6,0.00
2013-9-1,107,91,76,60,48,34,57,26,9,29.88,29.76,6,3,8,0.00
2013-9-2,94,83,75,71,61,50,80,50,24,29.99,29.82,4,1,6,0.12
2013-9-3,98,86,75,64,50,37,59,32,14,29.99,29.88,6,2,8,0.00
2013-9-4,102,88,72,57,49,34,53,30,10,30.02,29.91,5,1,8,0.00
2013-9-5,101,88,74,66,53,33,71,35,10,30.08,29.96,5,1,6,0.00
2013-9-6,102,88,74,62,51,39,62,32,12,30.08,29.93,6,1,8,0.00
2013-9-7,102,87,74,62,51,38,63,33,12,30.02,29.91,8,2,10,0.00
2013-9-8,100,84,69,65,53,41,79,40,15,29.96,29.85,7,2,8,0.00
2013-9-9,97,84,69,64,53,42,74,38,17,29.99,29.88,8,3,10,0.00
2013-9-10,96,83,73,67,54,38,76,42,14,30.08,29.96,6,2,9,0.00
2013-9-11,98,83,69,65,54,43,75,41,16,30.11,29.99,6,2,10,0.00
2013-9-12,99,85,71,62,53,43,71,38,16,30.05,29.91,6,2,8,0.00
2013-9-13,98,86,74,61,52,43,62,34,16,29.96,29.82,7,2,9,0.00
2013-9-14,94,85,76,55,48,42,46,30,17,29.96,29.85,6,3,9,0.00
2013-9-15,97,85,73,58,50,42,58,31,17,30.02,29.91,6,2,9,0.00
2013-9-16,96,85,72,61,50,41,63,33,16,30.08,29.93,5,1,8,0.00
2013-9-17,95,85,74,56,49,42,50,31,17,30.05,29.93,7,1,8,0.00
2013-9-18,100,86,76,60,49,38,57,31,13,30.02,29.85,9,3,11,0.00
2013-9-19,92,82,72,71,58,48,94,48,27,29.99,29.85,5,2,12,0.71
2013-9-20,74,73,71,74,70,61,100,91,72,29.93,29.82,8,3,9,4.57
2013-9-21,83,72,62,60,41,27,73,39,14,29.96,29.85,8,3,11,0.00
2013-9-22,85,70,56,54,43,32,79,42,16,29.93,29.79,4,1,8,0.00
2013-9-23,90,73,57,49,42,30,69,38,13,29.88,29.73,5,2,8,0.00
2013-9-24,93,78,65,60,46,28,77,39,12,29.93,29.82,4,1,8,0.00
2013-9-25,98,77,57,58,41,29,82,36,11,29.91,29.76,4,1,7,0.00
2013-9-26,97,81,68,50,41,31,47,27,11,29.88,29.79,8,3,10,0.00
2013-9-27,91,80,69,62,57,49,72,47,32,29.93,29.82,7,3,13,0.00
2013-9-28,87,76,67,73,66,58,94,70,47,30.02,29.85,8,4,9,1.50
2013-9-29,82,72,64,58,45,30,72,43,17,30.05,29.91,6,3,9,0.00
2013-9-30,90,72,57,56,48,36,84,50,15,29.93,29.82,5,1,6,0.00
2013-10-1,93,76,63,70,57,43,92,58,19,29.93,29.82,5,2,7,0.00
2013-10-2,92,80,72,71,63,54,94,60,28,29.96,29.85,6,3,9,0.00
2013-10-3,93,80,72,71,61,51,88,57,24,29.91,29.79,8,4,10,0.00
2013-10-4,91,80,72,68,60,52,86,53,28,29.91,29.82,9,4,11,0.00
2013-10-5,78,65,52,67,50,30,90,62,33,30.11,29.85,8,4,13,0.24
2013-10-6,75,62,50,50,34,18,89,46,13,30.11,30.02,9,2,11,0.04
2013-10-7,82,64,46,47,32,20,76,38,12,30.14,30.05,5,1,8,0.00
2013-10-8,85,67,49,43,35,26,68,37,13,30.08,29.96,4,1,8,0.00
2013-10-9,88,70,55,54,43,36,80,43,18,30.05,29.96,10,2,10,0.00
2013-10-10,85,70,59,62,50,44,86,53,28,30.05,29.88,6,2,9,0.00
2013-10-11,88,77,69,64,59,53,76,56,32,29.93,29.82,8,4,12,0.00
2013-10-12,97,79,70,74,63,53,91,62,27,30.05,29.88,6,3,12,0.00
2013-10-13,77,72,68,66,62,58,89,71,52,30.20,30.05,4,1,8,0.00
2013-10-14,76,72,69,74,69,63,100,93,78,30.11,29.91,8,2,11,0.47
2013-10-15,78,66,54,71,63,52,95,88,61,30.08,29.91,8,4,10,0.12
2013-10-16,64,58,53,54,44,35,95,63,35,30.11,29.99,6,3,10,0.12
2013-10-17,74,59,46,44,36,30,80,47,21,30.14,29.96,4,1,7,0.12
2013-10-18,73,61,51,50,44,38,82,57,28,30.11,29.91,9,2,13,0.12
2013-10-19,65,53,42,42,31,24,75,47,23,30.23,30.08,8,3,10,0.12
2013-10-20,74,57,40,45,34,29,86,48,21,30.08,29.91,7,3,10,0.12
2013-10-21,75,61,52,55,45,38,83,57,39,30.14,29.91,8,3,8,0.12
2013-10-22,76,59,44,40,34,24,76,45,15,30.20,30.05,4,1,5,0.12
2013-10-23,84,62,47,46,37,27,73,45,14,30.17,30.05,5,1,5,0.12
2013-10-24,71,54,48,43,41,34,76,64,32,30.29,30.11,4,2,8,0.12
2013-10-25,72,59,53,41,37,32,63,45,26,30.44,30.26,5,2,9,0.12
2013-10-26,78,65,57,59,48,40,95,56,35,30.29,30.08,9,4,13,0.12
2013-10-27,70,63,59,60,54,46,100,75,45,30.17,30.05,4,1,6,0.00
2013-10-28,78,67,55,67,59,51,100,77,51,30.17,30.05,6,2,11,0.00
2013-10-29,78,72,69,66,64,60,89,76,55,30.14,30.05,8,4,10,0.00
2013-10-30,73,70,66,71,65,63,100,87,77,30.08,29.88,10,4,10,0.00
2013-10-31,68,58,52,44,40,37,72,53,32,29.96,29.91,2,0,6,0.00
2013-11-1,78,62,48,51,41,31,86,51,21,30.17,29.88,8,2,12,0.00
2013-11-2,67,57,46,38,30,20,62,38,17,30.38,30.17,8,2,10,0.00
2013-11-3,70,55,41,42,34,29,77,50,23,30.29,30.08,10,3,10,2.20
2013-11-4,61,58,53,61,53,43,100,85,56,30.20,30.08,8,2,9,0.79
2013-11-5,70,66,61,68,64,61,100,96,87,30.14,30.02,6,3,9,0.12
2013-11-6,70,56,46,66,41,28,87,59,33,30.47,30.08,9,4,12,0.08
2013-11-7,63,50,37,35,28,22,79,47,21,30.61,30.47,5,1,6,0.00
2013-11-8,68,54,39,46,33,27,82,49,23,30.50,30.26,8,2,10,0.00
2013-11-9,72,61,55,43,38,34,53,43,31,30.35,30.26,8,3,10,0.00
2013-11-10,67,58,49,44,40,37,75,52,35,30.50,30.35,4,0,4,0.00
2013-11-11,76,59,44,51,42,38,88,59,26,30.44,30.32,4,0,5,0.00
2013-11-12,60,50,37,48,25,6,70,40,18,30.85,30.44,13,5,13,0.00
2013-11-13,53,40,29,18,14,9,57,36,21,30.85,30.56,4,1,5,0.00
2013-11-14,64,49,31,37,21,15,59,36,16,30.56,30.23,8,3,8,0.00
2013-11-15,76,61,55,53,44,37,82,57,27,30.23,30.08,6,6,6,0.00
2013-11-16,81,70,62,64,55,48,84,63,32,30.11,29.93,10,5,13,0.00
2013-11-17,88,75,64,68,45,24,91,44,10,30.29,29.96,8,3,11,0.00
2013-11-18,71,64,56,24,18,15,24,17,14,30.47,30.29,6,3,8,0.00
2013-11-19,70,61,54,30,24,16,36,25,14,30.47,30.32,8,3,8,0.00
2013-11-20,67,58,47,46,34,27,56,41,31,30.35,30.20,6,2,8,0.00
2013-11-21,76,65,42,69,59,37,100,83,59,30.56,30.29,8,3,14,0.39
2013-11-22,42,36,34,35,31,27,94,83,70,30.82,30.56,9,5,15,0.08
2013-11-23,42,38,36,37,30,18,100,74,47,30.91,30.79,9,4,10,0.08
2013-11-24,36,35,33,19,16,12,54,46,40,30.97,30.76,8,3,9,0.00
2013-11-25,38,35,32,36,30,17,97,84,49,30.76,30.56,6,1,9,0.67
2013-11-26,52,42,35,34,25,14,95,57,27,30.82,30.56,9,6,13,0.00
2013-11-27,46,36,29,15,10,2,51,35,19,30.91,30.79,8,3,12,0.00
2013-11-28,56,39,25,24,16,11,61,42,20,30.91,30.82,8,2,9,0.00
2013-11-29,62,44,28,34,24,16,70,48,25,30.97,30.82,6,1,9,0.00
2013-11-30,68,53,40,48,38,28,84,60,33,30.85,30.64,8,4,11,0.00
2013-12-1,69,59,51,61,50,46,100,76,46,30.67,30.44,10,3,11,0.00
2013-12-2,72,54,40,56,41,29,100,67,23,30.41,30.20,4,1,6,0.00
2013-12-3,77,58,43,44,33,24,86,47,15,30.20,30.05,6,1,8,0.00
2013-12-4,82,62,49,50,39,30,70,45,24,30.41,30.11,6,3,9,0.00
2013-12-5,51,35,29,28,19,12,88,54,36,30.70,30.41,10,6,15,0.00
2013-12-6,32,28,24,30,20,13,97,73,57,31.06,30.64,6,0,6,0.16
2013-12-7,26,24,21,23,14,7,89,66,55,31.06,30.85,0,0,0,0.00
2013-12-8,35,30,26,30,25,21,90,82,70,30.79,30.61,0,0,0,0.16
2013-12-9,33,32,30,32,24,13,100,75,49,30.97,30.70,6,0,9,0.04
2013-12-10,38,28,20,18,12,7,69,51,34,31.06,30.88,8,2,10,0.28
2013-12-11,47,35,24,28,21,17,78,58,37,31.15,30.85,6,1,7,0.12
2013-12-12,51,38,26,28,23,19,79,56,36,31.17,30.88,4,0,5,0.00
2013-12-13,47,44,40,47,36,26,100,75,53,30.85,30.38,8,3,11,0.04
2013-12-14,47,41,30,47,32,18,100,73,42,30.91,30.35,10,4,13,0.00
2013-12-15,63,42,25,34,24,18,84,54,19,30.94,30.79,5,1,6,0.00
2013-12-16,68,49,33,34,28,25,83,51,22,30.82,30.73,6,3,8,0.00
2013-12-17,70,51,35,35,28,23,79,47,19,30.88,30.76,4,1,5,0.00
2013-12-18,72,54,37,41,35,30,82,53,22,30.85,30.58,10,4,12,0.00
2013-12-19,73,62,52,59,50,42,87,66,40,30.58,30.32,16,6,17,0.00
2013-12-20,69,56,35,59,49,35,100,79,60,30.44,30.35,15,4,16,0.00
2013-12-21,56,44,34,55,43,34,100,96,75,30.38,30.14,6,1,8,1.38
2013-12-22,46,38,31,46,26,19,100,64,41,30.97,30.35,9,4,12,0.00
2013-12-23,48,35,25,25,20,17,82,58,32,31.12,30.94,4,1,4,0.00
2013-12-24,55,40,25,27,24,19,84,56,31,31.12,30.82,8,3,11,0.00
2013-12-25,60,44,33,36,28,21,76,55,29,31.00,30.82,6,2,10,0.00
2013-12-26,54,41,31,31,26,21,86,60,28,31.03,30.91,4,1,6,0.00
2013-12-27,61,51,40,32,28,24,67,44,26,30.51,30.39,3,0,6,0.00
2013-12-28,64,47,33,44,31,26,88,57,28,30.39,30.03,8,2,11,0.00
2013-12-29,50,38,31,43,28,18,89,67,50,30.36,30.00,10,4,13,0.00
2013-12-30,44,35,28,18,12,9,57,39,28,30.48,30.33,6,2,8,0.00
2013-12-31,57,40,25,22,17,12,63,42,22,30.51,30.30,6,2,8,0.00
2014-1-1,70,49,33,36,27,19,68,45,25,30.30,29.95,10,5,15,0.00
2014-1-2,43,32,25,17,10,7,52,40,28,30.57,30.30,12,4,14,0.00